sensor_id;sensor_type;location;lat;lon;timestamp;P1;durP1;ratioP1;P2;durP2;ratioP2
59271;SDS011;45043;51.068;7.026;2022-12-10T00:00:29;39.30;;;26.40;;
59271;SDS011;45043;51.068;7.026;2022-12-10T00:03:30;42.63;;;27.23;;
59271;SDS011;45043;51.068;7.026;2022-12-10T00:06:31;44.30;;;27.83;;
59271;SDS011;45043;51.068;7.026;2022-12-10T00:09:33;40.93;;;27.63;;
59271;SDS011;45043;51.068;7.026;2022-12-10T00:12:34;42.17;;;25.90;;
59271;SDS011;45043;51.068;7.026;2022-12-10T00:15:34;43.70;;;27.50;;
59271;SDS011;45043;51.068;7.026;2022-12-10T00:18:35;41.33;;;25.73;;
59271;SDS011;45043;51.068;7.026;2022-12-10T00:21:37;42.13;;;26.90;;
59271;SDS011;45043;51.068;7.026;2022-12-10T00:24:37;41.60;;;27.33;;
59271;SDS011;45043;51.068;7.026;2022-12-10T00:27:38;39.27;;;25.37;;
59271;SDS011;45043;51.068;7.026;2022-12-10T00:30:38;40.33;;;26.30;;
59271;SDS011;45043;51.068;7.026;2022-12-10T00:33:38;38.50;;;25.30;;
59271;SDS011;45043;51.068;7.026;2022-12-10T00:36:43;39.43;;;25.30;;
59271;SDS011;45043;51.068;7.026;2022-12-10T00:39:45;40.43;;;26.10;;
59271;SDS011;45043;51.068;7.026;2022-12-10T00:42:46;38.43;;;25.23;;
59271;SDS011;45043;51.068;7.026;2022-12-10T00:45:46;39.77;;;25.23;;
59271;SDS011;45043;51.068;7.026;2022-12-10T00:48:47;40.17;;;24.53;;
59271;SDS011;45043;51.068;7.026;2022-12-10T00:51:47;38.50;;;24.50;;
59271;SDS011;45043;51.068;7.026;2022-12-10T00:54:48;42.87;;;25.67;;
59271;SDS011;45043;51.068;7.026;2022-12-10T00:57:48;43.30;;;25.63;;
59271;SDS011;45043;51.068;7.026;2022-12-10T01:00:49;41.03;;;25.33;;
59271;SDS011;45043;51.068;7.026;2022-12-10T01:03:52;40.67;;;26.03;;
59271;SDS011;45043;51.068;7.026;2022-12-10T01:06:54;41.53;;;27.07;;
59271;SDS011;45043;51.068;7.026;2022-12-10T01:09:56;37.47;;;24.20;;
59271;SDS011;45043;51.068;7.026;2022-12-10T01:12:56;40.23;;;26.60;;
59271;SDS011;45043;51.068;7.026;2022-12-10T01:15:59;38.47;;;24.53;;
59271;SDS011;45043;51.068;7.026;2022-12-10T01:19:02;37.77;;;23.53;;
59271;SDS011;45043;51.068;7.026;2022-12-10T01:22:03;41.73;;;25.57;;
59271;SDS011;45043;51.068;7.026;2022-12-10T01:25:04;41.30;;;24.60;;
59271;SDS011;45043;51.068;7.026;2022-12-10T01:28:05;40.93;;;26.13;;
59271;SDS011;45043;51.068;7.026;2022-12-10T01:31:07;39.53;;;24.93;;
59271;SDS011;45043;51.068;7.026;2022-12-10T01:34:12;43.10;;;25.77;;
59271;SDS011;45043;51.068;7.026;2022-12-10T01:37:14;43.10;;;26.17;;
59271;SDS011;45043;51.068;7.026;2022-12-10T01:40:14;43.43;;;25.53;;
59271;SDS011;45043;51.068;7.026;2022-12-10T01:43:15;45.30;;;25.47;;
59271;SDS011;45043;51.068;7.026;2022-12-10T01:46:15;40.67;;;26.63;;
59271;SDS011;45043;51.068;7.026;2022-12-10T01:49:17;43.20;;;25.70;;
59271;SDS011;45043;51.068;7.026;2022-12-10T01:52:20;45.57;;;26.57;;
59271;SDS011;45043;51.068;7.026;2022-12-10T01:58:55;43.57;;;26.57;;
59271;SDS011;45043;51.068;7.026;2022-12-10T02:05:17;42.30;;;26.97;;
59271;SDS011;45043;51.068;7.026;2022-12-10T02:08:26;45.23;;;27.30;;
59271;SDS011;45043;51.068;7.026;2022-12-10T02:11:38;46.63;;;26.77;;
59271;SDS011;45043;51.068;7.026;2022-12-10T02:15:02;44.07;;;26.67;;
59271;SDS011;45043;51.068;7.026;2022-12-10T02:21:37;45.20;;;26.77;;
59271;SDS011;45043;51.068;7.026;2022-12-10T02:24:40;44.83;;;27.40;;
59271;SDS011;45043;51.068;7.026;2022-12-10T02:31:00;47.87;;;28.37;;
59271;SDS011;45043;51.068;7.026;2022-12-10T02:34:05;43.13;;;25.53;;
59271;SDS011;45043;51.068;7.026;2022-12-10T02:37:13;44.37;;;27.10;;
59271;SDS011;45043;51.068;7.026;2022-12-10T02:40:25;43.53;;;26.17;;
59271;SDS011;45043;51.068;7.026;2022-12-10T02:43:32;48.13;;;27.77;;
59271;SDS011;45043;51.068;7.026;2022-12-10T02:46:33;42.53;;;26.27;;
59271;SDS011;45043;51.068;7.026;2022-12-10T02:49:39;43.33;;;25.93;;
59271;SDS011;45043;51.068;7.026;2022-12-10T02:52:41;44.83;;;26.73;;
59271;SDS011;45043;51.068;7.026;2022-12-10T02:59:05;42.00;;;25.67;;
59271;SDS011;45043;51.068;7.026;2022-12-10T03:02:15;43.87;;;26.00;;
59271;SDS011;45043;51.068;7.026;2022-12-10T03:05:27;39.03;;;24.43;;
59271;SDS011;45043;51.068;7.026;2022-12-10T03:08:42;40.53;;;25.57;;
59271;SDS011;45043;51.068;7.026;2022-12-10T03:11:49;41.57;;;24.87;;
59271;SDS011;45043;51.068;7.026;2022-12-10T03:14:59;44.33;;;27.30;;
59271;SDS011;45043;51.068;7.026;2022-12-10T03:18:02;46.53;;;26.17;;
59271;SDS011;45043;51.068;7.026;2022-12-10T03:21:05;46.20;;;27.40;;
59271;SDS011;45043;51.068;7.026;2022-12-10T03:24:09;46.67;;;27.17;;
59271;SDS011;45043;51.068;7.026;2022-12-10T03:27:11;49.57;;;27.67;;
59271;SDS011;45043;51.068;7.026;2022-12-10T03:30:13;42.47;;;26.00;;
59271;SDS011;45043;51.068;7.026;2022-12-10T03:33:13;44.20;;;26.67;;
59271;SDS011;45043;51.068;7.026;2022-12-10T03:36:16;43.70;;;26.37;;
59271;SDS011;45043;51.068;7.026;2022-12-10T03:39:18;49.13;;;28.17;;
59271;SDS011;45043;51.068;7.026;2022-12-10T03:42:19;43.63;;;26.93;;
59271;SDS011;45043;51.068;7.026;2022-12-10T03:45:19;48.83;;;28.57;;
59271;SDS011;45043;51.068;7.026;2022-12-10T03:48:20;46.00;;;28.13;;
59271;SDS011;45043;51.068;7.026;2022-12-10T03:51:20;47.63;;;28.87;;
59271;SDS011;45043;51.068;7.026;2022-12-10T03:54:21;46.97;;;27.60;;
59271;SDS011;45043;51.068;7.026;2022-12-10T03:57:21;45.13;;;27.93;;
59271;SDS011;45043;51.068;7.026;2022-12-10T04:00:21;45.27;;;27.80;;
59271;SDS011;45043;51.068;7.026;2022-12-10T04:03:22;43.80;;;26.83;;
59271;SDS011;45043;51.068;7.026;2022-12-10T04:06:22;45.73;;;27.03;;
59271;SDS011;45043;51.068;7.026;2022-12-10T04:09:23;45.13;;;27.23;;
59271;SDS011;45043;51.068;7.026;2022-12-10T04:12:24;50.03;;;28.93;;
59271;SDS011;45043;51.068;7.026;2022-12-10T04:15:24;48.53;;;29.27;;
59271;SDS011;45043;51.068;7.026;2022-12-10T04:18:44;44.63;;;27.83;;
59271;SDS011;45043;51.068;7.026;2022-12-10T04:21:45;46.30;;;28.07;;
59271;SDS011;45043;51.068;7.026;2022-12-10T04:25:04;50.53;;;29.50;;
59271;SDS011;45043;51.068;7.026;2022-12-10T04:28:23;46.87;;;27.60;;
59271;SDS011;45043;51.068;7.026;2022-12-10T04:31:24;51.63;;;29.00;;
59271;SDS011;45043;51.068;7.026;2022-12-10T04:34:24;45.60;;;28.90;;
59271;SDS011;45043;51.068;7.026;2022-12-10T04:37:25;47.20;;;28.33;;
59271;SDS011;45043;51.068;7.026;2022-12-10T04:40:27;46.27;;;28.70;;
59271;SDS011;45043;51.068;7.026;2022-12-10T04:43:27;48.93;;;30.17;;
59271;SDS011;45043;51.068;7.026;2022-12-10T04:46:27;52.33;;;31.30;;
59271;SDS011;45043;51.068;7.026;2022-12-10T04:49:28;46.07;;;28.37;;
59271;SDS011;45043;51.068;7.026;2022-12-10T04:52:29;45.17;;;28.63;;
59271;SDS011;45043;51.068;7.026;2022-12-10T04:55:29;47.47;;;28.83;;
59271;SDS011;45043;51.068;7.026;2022-12-10T04:58:29;49.43;;;29.27;;
59271;SDS011;45043;51.068;7.026;2022-12-10T05:01:31;47.40;;;29.30;;
59271;SDS011;45043;51.068;7.026;2022-12-10T05:04:32;49.47;;;30.10;;
59271;SDS011;45043;51.068;7.026;2022-12-10T05:07:33;46.43;;;27.73;;
59271;SDS011;45043;51.068;7.026;2022-12-10T05:10:34;47.27;;;29.20;;
59271;SDS011;45043;51.068;7.026;2022-12-10T05:13:34;48.63;;;28.97;;
59271;SDS011;45043;51.068;7.026;2022-12-10T05:16:35;45.17;;;28.63;;
59271;SDS011;45043;51.068;7.026;2022-12-10T05:19:35;44.97;;;27.60;;
59271;SDS011;45043;51.068;7.026;2022-12-10T05:22:36;39.03;;;24.27;;
59271;SDS011;45043;51.068;7.026;2022-12-10T05:26:05;43.00;;;27.00;;
59271;SDS011;45043;51.068;7.026;2022-12-10T05:29:14;40.53;;;25.27;;
59271;SDS011;45043;51.068;7.026;2022-12-10T05:32:14;45.20;;;27.77;;
59271;SDS011;45043;51.068;7.026;2022-12-10T05:35:15;42.40;;;25.83;;
59271;SDS011;45043;51.068;7.026;2022-12-10T05:38:15;40.00;;;25.27;;
59271;SDS011;45043;51.068;7.026;2022-12-10T05:41:33;42.30;;;25.97;;
59271;SDS011;45043;51.068;7.026;2022-12-10T05:44:35;45.47;;;28.30;;
59271;SDS011;45043;51.068;7.026;2022-12-10T05:47:35;41.57;;;26.80;;
59271;SDS011;45043;51.068;7.026;2022-12-10T05:50:36;40.27;;;26.83;;
59271;SDS011;45043;51.068;7.026;2022-12-10T05:53:37;40.90;;;26.77;;
59271;SDS011;45043;51.068;7.026;2022-12-10T05:56:38;40.00;;;27.60;;
59271;SDS011;45043;51.068;7.026;2022-12-10T05:59:38;39.83;;;27.40;;
59271;SDS011;45043;51.068;7.026;2022-12-10T06:02:40;40.00;;;26.43;;
59271;SDS011;45043;51.068;7.026;2022-12-10T06:05:40;40.33;;;26.67;;
59271;SDS011;45043;51.068;7.026;2022-12-10T06:08:41;40.47;;;26.43;;
59271;SDS011;45043;51.068;7.026;2022-12-10T06:11:41;43.23;;;29.13;;
59271;SDS011;45043;51.068;7.026;2022-12-10T06:14:42;40.63;;;27.10;;
59271;SDS011;45043;51.068;7.026;2022-12-10T06:17:42;40.10;;;26.47;;
59271;SDS011;45043;51.068;7.026;2022-12-10T06:20:43;41.17;;;27.17;;
59271;SDS011;45043;51.068;7.026;2022-12-10T06:23:44;41.80;;;28.20;;
59271;SDS011;45043;51.068;7.026;2022-12-10T06:26:45;39.93;;;27.77;;
59271;SDS011;45043;51.068;7.026;2022-12-10T06:29:45;38.83;;;26.53;;
59271;SDS011;45043;51.068;7.026;2022-12-10T06:32:45;38.33;;;26.10;;
59271;SDS011;45043;51.068;7.026;2022-12-10T06:35:46;43.17;;;28.87;;
59271;SDS011;45043;51.068;7.026;2022-12-10T06:38:46;40.27;;;26.93;;
59271;SDS011;45043;51.068;7.026;2022-12-10T06:41:47;37.27;;;25.43;;
59271;SDS011;45043;51.068;7.026;2022-12-10T06:44:48;40.10;;;26.93;;
59271;SDS011;45043;51.068;7.026;2022-12-10T06:47:48;38.27;;;25.50;;
59271;SDS011;45043;51.068;7.026;2022-12-10T06:50:48;35.90;;;24.97;;
59271;SDS011;45043;51.068;7.026;2022-12-10T06:53:49;44.00;;;28.00;;
59271;SDS011;45043;51.068;7.026;2022-12-10T06:56:49;42.20;;;27.83;;
59271;SDS011;45043;51.068;7.026;2022-12-10T06:59:50;40.20;;;27.20;;
59271;SDS011;45043;51.068;7.026;2022-12-10T07:02:50;42.10;;;28.47;;
59271;SDS011;45043;51.068;7.026;2022-12-10T07:05:50;42.13;;;26.93;;
59271;SDS011;45043;51.068;7.026;2022-12-10T07:08:51;41.93;;;27.97;;
59271;SDS011;45043;51.068;7.026;2022-12-10T07:11:52;44.50;;;28.23;;
59271;SDS011;45043;51.068;7.026;2022-12-10T07:14:52;42.20;;;29.10;;
59271;SDS011;45043;51.068;7.026;2022-12-10T07:17:52;46.37;;;29.73;;
59271;SDS011;45043;51.068;7.026;2022-12-10T07:20:53;45.77;;;28.43;;
59271;SDS011;45043;51.068;7.026;2022-12-10T07:23:54;40.77;;;26.77;;
59271;SDS011;45043;51.068;7.026;2022-12-10T07:26:58;44.30;;;28.77;;
59271;SDS011;45043;51.068;7.026;2022-12-10T07:29:58;44.70;;;29.27;;
59271;SDS011;45043;51.068;7.026;2022-12-10T07:32:59;47.00;;;29.63;;
59271;SDS011;45043;51.068;7.026;2022-12-10T07:36:02;48.20;;;28.83;;
59271;SDS011;45043;51.068;7.026;2022-12-10T07:39:07;43.33;;;28.70;;
59271;SDS011;45043;51.068;7.026;2022-12-10T07:42:09;43.40;;;28.23;;
59271;SDS011;45043;51.068;7.026;2022-12-10T07:45:12;47.80;;;30.03;;
59271;SDS011;45043;51.068;7.026;2022-12-10T07:48:12;45.70;;;30.07;;
59271;SDS011;45043;51.068;7.026;2022-12-10T07:51:13;45.80;;;29.40;;
59271;SDS011;45043;51.068;7.026;2022-12-10T07:54:14;44.83;;;28.30;;
59271;SDS011;45043;51.068;7.026;2022-12-10T07:57:15;49.23;;;29.47;;
59271;SDS011;45043;51.068;7.026;2022-12-10T08:00:15;46.23;;;29.23;;
59271;SDS011;45043;51.068;7.026;2022-12-10T08:03:16;44.03;;;28.73;;
59271;SDS011;45043;51.068;7.026;2022-12-10T08:06:17;44.97;;;28.83;;
59271;SDS011;45043;51.068;7.026;2022-12-10T08:09:20;46.40;;;29.33;;
59271;SDS011;45043;51.068;7.026;2022-12-10T08:12:20;43.13;;;27.23;;
59271;SDS011;45043;51.068;7.026;2022-12-10T08:15:21;47.37;;;28.60;;
59271;SDS011;45043;51.068;7.026;2022-12-10T08:18:21;41.43;;;26.47;;
59271;SDS011;45043;51.068;7.026;2022-12-10T08:21:22;44.53;;;27.47;;
59271;SDS011;45043;51.068;7.026;2022-12-10T08:24:26;44.57;;;28.63;;
59271;SDS011;45043;51.068;7.026;2022-12-10T08:27:26;41.40;;;27.70;;
59271;SDS011;45043;51.068;7.026;2022-12-10T08:30:27;47.80;;;30.57;;
59271;SDS011;45043;51.068;7.026;2022-12-10T08:33:27;44.00;;;28.47;;
59271;SDS011;45043;51.068;7.026;2022-12-10T08:36:28;39.77;;;26.73;;
59271;SDS011;45043;51.068;7.026;2022-12-10T08:39:30;40.90;;;27.43;;
59271;SDS011;45043;51.068;7.026;2022-12-10T08:42:30;44.43;;;28.00;;
59271;SDS011;45043;51.068;7.026;2022-12-10T08:45:31;46.27;;;29.17;;
59271;SDS011;45043;51.068;7.026;2022-12-10T08:48:31;45.47;;;28.70;;
59271;SDS011;45043;51.068;7.026;2022-12-10T08:51:33;50.23;;;29.83;;
59271;SDS011;45043;51.068;7.026;2022-12-10T08:54:33;54.07;;;31.10;;
59271;SDS011;45043;51.068;7.026;2022-12-10T08:57:34;54.87;;;33.40;;
59271;SDS011;45043;51.068;7.026;2022-12-10T09:00:35;54.17;;;33.03;;
59271;SDS011;45043;51.068;7.026;2022-12-10T09:03:36;59.47;;;34.97;;
59271;SDS011;45043;51.068;7.026;2022-12-10T09:06:37;52.47;;;33.47;;
59271;SDS011;45043;51.068;7.026;2022-12-10T09:09:38;57.37;;;34.80;;
59271;SDS011;45043;51.068;7.026;2022-12-10T09:12:38;59.73;;;35.47;;
59271;SDS011;45043;51.068;7.026;2022-12-10T09:15:39;62.93;;;36.87;;
59271;SDS011;45043;51.068;7.026;2022-12-10T09:18:39;59.07;;;34.87;;
59271;SDS011;45043;51.068;7.026;2022-12-10T09:21:40;56.57;;;34.57;;
59271;SDS011;45043;51.068;7.026;2022-12-10T09:24:43;65.83;;;37.43;;
59271;SDS011;45043;51.068;7.026;2022-12-10T09:27:43;62.40;;;35.93;;
59271;SDS011;45043;51.068;7.026;2022-12-10T09:30:44;65.00;;;38.10;;
59271;SDS011;45043;51.068;7.026;2022-12-10T09:33:45;66.73;;;37.07;;
59271;SDS011;45043;51.068;7.026;2022-12-10T09:36:46;66.17;;;38.93;;
59271;SDS011;45043;51.068;7.026;2022-12-10T09:39:48;75.73;;;41.30;;
59271;SDS011;45043;51.068;7.026;2022-12-10T09:43:04;73.33;;;39.33;;
59271;SDS011;45043;51.068;7.026;2022-12-10T09:49:48;78.23;;;42.33;;
59271;SDS011;45043;51.068;7.026;2022-12-10T09:52:57;73.57;;;40.23;;
59271;SDS011;45043;51.068;7.026;2022-12-10T09:56:02;79.33;;;43.43;;
59271;SDS011;45043;51.068;7.026;2022-12-10T09:59:03;77.90;;;41.57;;
59271;SDS011;45043;51.068;7.026;2022-12-10T10:05:21;75.83;;;41.03;;
59271;SDS011;45043;51.068;7.026;2022-12-10T10:11:36;72.83;;;40.73;;
59271;SDS011;45043;51.068;7.026;2022-12-10T10:14:37;79.93;;;43.40;;
59271;SDS011;45043;51.068;7.026;2022-12-10T10:17:38;77.83;;;41.13;;
59271;SDS011;45043;51.068;7.026;2022-12-10T10:20:38;70.37;;;40.77;;
59271;SDS011;45043;51.068;7.026;2022-12-10T10:23:39;76.43;;;40.73;;
59271;SDS011;45043;51.068;7.026;2022-12-10T10:26:43;71.57;;;40.70;;
59271;SDS011;45043;51.068;7.026;2022-12-10T10:29:47;76.17;;;42.90;;
59271;SDS011;45043;51.068;7.026;2022-12-10T10:32:54;78.93;;;42.37;;
59271;SDS011;45043;51.068;7.026;2022-12-10T10:35:56;78.50;;;45.67;;
59271;SDS011;45043;51.068;7.026;2022-12-10T10:39:18;82.53;;;49.15;;
59271;SDS011;45043;51.068;7.026;2022-12-10T10:45:47;72.83;;;40.80;;
59271;SDS011;45043;51.068;7.026;2022-12-10T10:48:50;80.03;;;42.00;;
59271;SDS011;45043;51.068;7.026;2022-12-10T10:51:52;76.70;;;41.23;;
59271;SDS011;45043;51.068;7.026;2022-12-10T10:54:54;76.17;;;42.30;;
59271;SDS011;45043;51.068;7.026;2022-12-10T10:57:54;72.90;;;40.93;;
59271;SDS011;45043;51.068;7.026;2022-12-10T11:04:06;75.00;;;41.30;;
59271;SDS011;45043;51.068;7.026;2022-12-10T11:07:15;68.20;;;39.30;;
59271;SDS011;45043;51.068;7.026;2022-12-10T11:10:21;73.67;;;38.47;;
59271;SDS011;45043;51.068;7.026;2022-12-10T11:13:24;75.90;;;41.57;;
59271;SDS011;45043;51.068;7.026;2022-12-10T11:16:27;71.90;;;38.43;;
59271;SDS011;45043;51.068;7.026;2022-12-10T11:19:27;71.43;;;39.10;;
59271;SDS011;45043;51.068;7.026;2022-12-10T11:22:32;67.67;;;37.27;;
59271;SDS011;45043;51.068;7.026;2022-12-10T11:41:53;68.27;;;38.30;;
59271;SDS011;45043;51.068;7.026;2022-12-10T11:45:22;63.40;;;34.97;;
59271;SDS011;45043;51.068;7.026;2022-12-10T12:08:33;54.00;;;31.53;;
59271;SDS011;45043;51.068;7.026;2022-12-10T12:15:13;51.40;;;31.07;;
59271;SDS011;45043;51.068;7.026;2022-12-10T12:18:54;50.43;;;30.77;;
59271;SDS011;45043;51.068;7.026;2022-12-10T12:21:55;57.10;;;32.97;;
59271;SDS011;45043;51.068;7.026;2022-12-10T12:25:02;43.37;;;26.13;;
59271;SDS011;45043;51.068;7.026;2022-12-10T12:28:15;37.23;;;23.20;;
59271;SDS011;45043;51.068;7.026;2022-12-10T12:31:34;37.33;;;22.23;;
59271;SDS011;45043;51.068;7.026;2022-12-10T12:37:54;38.20;;;23.23;;
59271;SDS011;45043;51.068;7.026;2022-12-10T12:41:03;38.03;;;24.57;;
59271;SDS011;45043;51.068;7.026;2022-12-10T12:48:02;45.73;;;27.33;;
59271;SDS011;45043;51.068;7.026;2022-12-10T12:51:16;44.73;;;28.70;;
59271;SDS011;45043;51.068;7.026;2022-12-10T12:54:22;47.73;;;28.07;;
59271;SDS011;45043;51.068;7.026;2022-12-10T12:57:43;46.37;;;28.83;;
59271;SDS011;45043;51.068;7.026;2022-12-10T13:00:49;45.33;;;28.87;;
59271;SDS011;45043;51.068;7.026;2022-12-10T13:03:53;48.60;;;28.63;;
59271;SDS011;45043;51.068;7.026;2022-12-10T13:19:43;55.70;;;33.43;;
59271;SDS011;45043;51.068;7.026;2022-12-10T13:22:53;53.30;;;31.50;;
59271;SDS011;45043;51.068;7.026;2022-12-10T13:26:19;51.90;;;32.20;;
59271;SDS011;45043;51.068;7.026;2022-12-10T13:29:24;48.23;;;31.33;;
59271;SDS011;45043;51.068;7.026;2022-12-10T13:35:30;48.53;;;30.67;;
59271;SDS011;45043;51.068;7.026;2022-12-10T13:38:34;51.83;;;32.43;;
59271;SDS011;45043;51.068;7.026;2022-12-10T13:45:30;52.07;;;31.57;;
59271;SDS011;45043;51.068;7.026;2022-12-10T13:48:32;54.07;;;32.83;;
59271;SDS011;45043;51.068;7.026;2022-12-10T13:54:58;48.47;;;31.30;;
59271;SDS011;45043;51.068;7.026;2022-12-10T14:04:27;52.50;;;30.80;;
59271;SDS011;45043;51.068;7.026;2022-12-10T14:07:50;50.13;;;30.10;;
59271;SDS011;45043;51.068;7.026;2022-12-10T14:10:55;46.77;;;30.73;;
59271;SDS011;45043;51.068;7.026;2022-12-10T14:13:59;49.67;;;31.43;;
59271;SDS011;45043;51.068;7.026;2022-12-10T14:17:02;52.03;;;32.47;;
59271;SDS011;45043;51.068;7.026;2022-12-10T14:20:16;48.33;;;30.83;;
59271;SDS011;45043;51.068;7.026;2022-12-10T14:23:26;49.67;;;30.47;;
59271;SDS011;45043;51.068;7.026;2022-12-10T14:26:36;50.07;;;29.47;;
59271;SDS011;45043;51.068;7.026;2022-12-10T14:29:36;51.03;;;30.50;;
59271;SDS011;45043;51.068;7.026;2022-12-10T14:32:37;52.17;;;31.27;;
59271;SDS011;45043;51.068;7.026;2022-12-10T14:35:38;50.53;;;31.80;;
59271;SDS011;45043;51.068;7.026;2022-12-10T14:38:40;52.97;;;33.27;;
59271;SDS011;45043;51.068;7.026;2022-12-10T14:41:41;48.73;;;32.37;;
59271;SDS011;45043;51.068;7.026;2022-12-10T14:44:42;50.90;;;32.00;;
59271;SDS011;45043;51.068;7.026;2022-12-10T14:47:44;53.57;;;33.07;;
59271;SDS011;45043;51.068;7.026;2022-12-10T14:50:46;48.37;;;29.70;;
59271;SDS011;45043;51.068;7.026;2022-12-10T14:53:47;54.63;;;34.43;;
59271;SDS011;45043;51.068;7.026;2022-12-10T14:56:49;49.13;;;29.60;;
59271;SDS011;45043;51.068;7.026;2022-12-10T14:59:57;47.60;;;29.60;;
59271;SDS011;45043;51.068;7.026;2022-12-10T15:03:00;53.17;;;30.37;;
59271;SDS011;45043;51.068;7.026;2022-12-10T15:06:07;49.60;;;30.87;;
59271;SDS011;45043;51.068;7.026;2022-12-10T15:09:13;50.00;;;30.37;;
59271;SDS011;45043;51.068;7.026;2022-12-10T15:12:33;53.43;;;31.77;;
59271;SDS011;45043;51.068;7.026;2022-12-10T15:15:43;51.67;;;31.97;;
59271;SDS011;45043;51.068;7.026;2022-12-10T15:18:47;49.43;;;30.80;;
59271;SDS011;45043;51.068;7.026;2022-12-10T15:21:48;55.40;;;30.87;;
59271;SDS011;45043;51.068;7.026;2022-12-10T15:24:49;51.37;;;32.80;;
59271;SDS011;45043;51.068;7.026;2022-12-10T15:27:54;52.00;;;31.63;;
59271;SDS011;45043;51.068;7.026;2022-12-10T15:31:09;57.10;;;32.33;;
59271;SDS011;45043;51.068;7.026;2022-12-10T15:34:12;51.07;;;32.47;;
59271;SDS011;45043;51.068;7.026;2022-12-10T15:37:21;53.60;;;32.20;;
59271;SDS011;45043;51.068;7.026;2022-12-10T15:40:26;54.37;;;32.50;;
59271;SDS011;45043;51.068;7.026;2022-12-10T15:43:29;55.17;;;33.53;;
59271;SDS011;45043;51.068;7.026;2022-12-10T15:46:30;52.60;;;32.33;;
59271;SDS011;45043;51.068;7.026;2022-12-10T15:49:32;52.53;;;33.10;;
59271;SDS011;45043;51.068;7.026;2022-12-10T15:52:32;50.67;;;32.80;;
59271;SDS011;45043;51.068;7.026;2022-12-10T15:55:33;51.83;;;33.63;;
59271;SDS011;45043;51.068;7.026;2022-12-10T15:58:33;57.37;;;34.83;;
59271;SDS011;45043;51.068;7.026;2022-12-10T16:01:33;52.53;;;33.00;;
59271;SDS011;45043;51.068;7.026;2022-12-10T16:04:34;53.37;;;34.60;;
59271;SDS011;45043;51.068;7.026;2022-12-10T16:07:35;54.27;;;34.70;;
59271;SDS011;45043;51.068;7.026;2022-12-10T16:10:35;51.30;;;34.40;;
59271;SDS011;45043;51.068;7.026;2022-12-10T16:13:36;57.37;;;36.17;;
59271;SDS011;45043;51.068;7.026;2022-12-10T16:16:40;54.47;;;34.17;;
59271;SDS011;45043;51.068;7.026;2022-12-10T16:19:41;57.47;;;35.37;;
59271;SDS011;45043;51.068;7.026;2022-12-10T16:22:41;53.37;;;34.97;;
59271;SDS011;45043;51.068;7.026;2022-12-10T16:25:42;61.60;;;37.20;;
59271;SDS011;45043;51.068;7.026;2022-12-10T16:28:46;58.23;;;36.53;;
59271;SDS011;45043;51.068;7.026;2022-12-10T16:31:48;60.33;;;35.50;;
59271;SDS011;45043;51.068;7.026;2022-12-10T16:34:48;58.20;;;37.07;;
59271;SDS011;45043;51.068;7.026;2022-12-10T16:37:50;62.23;;;37.13;;
59271;SDS011;45043;51.068;7.026;2022-12-10T16:40:54;60.27;;;36.77;;
59271;SDS011;45043;51.068;7.026;2022-12-10T16:43:55;56.17;;;35.30;;
59271;SDS011;45043;51.068;7.026;2022-12-10T16:46:55;64.83;;;37.83;;
59271;SDS011;45043;51.068;7.026;2022-12-10T16:49:57;55.13;;;35.10;;
59271;SDS011;45043;51.068;7.026;2022-12-10T16:52:58;58.53;;;36.83;;
59271;SDS011;45043;51.068;7.026;2022-12-10T16:56:07;57.63;;;36.63;;
59271;SDS011;45043;51.068;7.026;2022-12-10T16:59:12;64.97;;;38.57;;
59271;SDS011;45043;51.068;7.026;2022-12-10T17:02:16;61.90;;;36.47;;
59271;SDS011;45043;51.068;7.026;2022-12-10T17:05:31;59.03;;;35.33;;
59271;SDS011;45043;51.068;7.026;2022-12-10T17:08:33;62.00;;;37.07;;
59271;SDS011;45043;51.068;7.026;2022-12-10T17:11:36;61.57;;;38.07;;
59271;SDS011;45043;51.068;7.026;2022-12-10T17:14:48;61.80;;;38.13;;
59271;SDS011;45043;51.068;7.026;2022-12-10T17:17:48;60.37;;;36.30;;
59271;SDS011;45043;51.068;7.026;2022-12-10T17:20:49;57.63;;;35.77;;
59271;SDS011;45043;51.068;7.026;2022-12-10T17:23:49;57.97;;;36.83;;
59271;SDS011;45043;51.068;7.026;2022-12-10T17:26:50;56.20;;;37.07;;
59271;SDS011;45043;51.068;7.026;2022-12-10T17:29:51;58.93;;;36.40;;
59271;SDS011;45043;51.068;7.026;2022-12-10T17:32:54;60.07;;;37.80;;
59271;SDS011;45043;51.068;7.026;2022-12-10T17:35:55;58.87;;;37.13;;
59271;SDS011;45043;51.068;7.026;2022-12-10T17:38:55;58.17;;;38.40;;
59271;SDS011;45043;51.068;7.026;2022-12-10T17:41:56;64.50;;;37.10;;
59271;SDS011;45043;51.068;7.026;2022-12-10T17:44:56;59.33;;;36.80;;
59271;SDS011;45043;51.068;7.026;2022-12-10T17:47:57;61.40;;;36.07;;
59271;SDS011;45043;51.068;7.026;2022-12-10T17:50:57;53.20;;;34.33;;
59271;SDS011;45043;51.068;7.026;2022-12-10T17:53:58;55.30;;;35.20;;
59271;SDS011;45043;51.068;7.026;2022-12-10T17:56:58;51.80;;;33.23;;
59271;SDS011;45043;51.068;7.026;2022-12-10T18:00:00;47.47;;;32.27;;
59271;SDS011;45043;51.068;7.026;2022-12-10T18:03:01;48.97;;;33.13;;
59271;SDS011;45043;51.068;7.026;2022-12-10T18:06:03;49.97;;;32.70;;
59271;SDS011;45043;51.068;7.026;2022-12-10T18:09:05;51.27;;;34.13;;
59271;SDS011;45043;51.068;7.026;2022-12-10T18:12:10;48.67;;;32.47;;
59271;SDS011;45043;51.068;7.026;2022-12-10T18:15:11;53.03;;;33.37;;
59271;SDS011;45043;51.068;7.026;2022-12-10T18:18:13;51.50;;;31.23;;
59271;SDS011;45043;51.068;7.026;2022-12-10T18:21:14;49.73;;;31.93;;
59271;SDS011;45043;51.068;7.026;2022-12-10T18:24:17;48.17;;;31.77;;
59271;SDS011;45043;51.068;7.026;2022-12-10T18:27:18;46.53;;;32.03;;
59271;SDS011;45043;51.068;7.026;2022-12-10T18:30:20;45.23;;;31.67;;
59271;SDS011;45043;51.068;7.026;2022-12-10T18:33:22;46.33;;;32.73;;
59271;SDS011;45043;51.068;7.026;2022-12-10T18:36:23;47.97;;;32.47;;
59271;SDS011;45043;51.068;7.026;2022-12-10T18:39:29;45.13;;;30.77;;
59271;SDS011;45043;51.068;7.026;2022-12-10T18:42:31;50.27;;;32.10;;
59271;SDS011;45043;51.068;7.026;2022-12-10T18:45:32;50.30;;;33.73;;
59271;SDS011;45043;51.068;7.026;2022-12-10T18:48:32;44.93;;;31.17;;
59271;SDS011;45043;51.068;7.026;2022-12-10T18:51:33;45.07;;;31.07;;
59271;SDS011;45043;51.068;7.026;2022-12-10T18:54:34;49.10;;;32.20;;
59271;SDS011;45043;51.068;7.026;2022-12-10T18:57:34;49.93;;;33.10;;
59271;SDS011;45043;51.068;7.026;2022-12-10T19:00:35;52.37;;;32.13;;
59271;SDS011;45043;51.068;7.026;2022-12-10T19:03:35;45.53;;;31.53;;
59271;SDS011;45043;51.068;7.026;2022-12-10T19:06:36;49.40;;;32.73;;
59271;SDS011;45043;51.068;7.026;2022-12-10T19:09:37;47.07;;;32.13;;
59271;SDS011;45043;51.068;7.026;2022-12-10T19:12:39;46.17;;;30.70;;
59271;SDS011;45043;51.068;7.026;2022-12-10T19:15:39;48.70;;;31.60;;
59271;SDS011;45043;51.068;7.026;2022-12-10T19:18:40;46.03;;;31.70;;
59271;SDS011;45043;51.068;7.026;2022-12-10T19:21:40;48.53;;;31.50;;
59271;SDS011;45043;51.068;7.026;2022-12-10T19:24:41;50.67;;;32.90;;
59271;SDS011;45043;51.068;7.026;2022-12-10T19:27:41;47.20;;;32.10;;
59271;SDS011;45043;51.068;7.026;2022-12-10T19:30:42;47.30;;;32.73;;
59271;SDS011;45043;51.068;7.026;2022-12-10T19:33:42;49.13;;;32.63;;
59271;SDS011;45043;51.068;7.026;2022-12-10T19:36:43;49.37;;;32.77;;
59271;SDS011;45043;51.068;7.026;2022-12-10T19:39:44;54.83;;;35.20;;